Time;durP1;ratioP1;P1;durP2;ratioP2;P2;SDS_P1;SDS_P2;PMS_P1;PMS_P2;Temp;Humidity;BMP_temperature;BMP_pressure;BME280_temperature;BME280_humidity;BME280_pressure;Samples;Min_cycle;Max_cycle;Signal;HPM_P1;HPM_P2
2022/06/17 00:01:23;;;;;;;10.58;5.40;;;;;;;14.29;65.38;99648.52;1618491;88;21145;-83
2022/06/17 00:03:51;;;;;;;7.12;4.25;;;;;;;14.27;65.63;99643.30;1618710;88;21082;-82
2022/06/17 00:06:21;;;;;;;8.48;4.40;;;;;;;14.24;65.61;99641.23;1618480;88;21133;-81
2022/06/17 00:08:50;;;;;;;9.25;5.00;;;;;;;14.19;65.80;99643.24;1618206;88;21148;-82
2022/06/17 00:11:35;;;;;;;11.30;5.50;;;;;;;14.17;65.91;99643.78;1616612;88;21095;-82
2022/06/17 00:14:05;;;;;;;14.68;5.85;;;;;;;14.13;65.97;99647.89;1645297;87;21028;-81
2022/06/17 00:16:33;;;;;;;11.00;5.15;;;;;;;14.10;66.17;99652.03;1616089;88;21165;-82
2022/06/17 00:19:00;;;;;;;6.95;4.70;;;;;;;14.09;66.09;99647.66;1616361;88;21157;-83
2022/06/17 00:21:31;;;;;;;7.95;4.70;;;;;;;14.07;66.19;99658.79;1616002;88;21873;-82
2022/06/17 00:23:59;;;;;;;10.50;4.70;;;;;;;14.05;66.27;99652.69;1615194;88;21146;-80
2022/06/17 00:26:25;;;;;;;10.00;4.83;;;;;;;14.02;66.35;99650.21;1615913;88;21112;-81
2022/06/17 00:28:51;;;;;;;9.35;4.97;;;;;;;13.99;66.54;99646.38;1616041;88;21179;-82
2022/06/17 00:31:18;;;;;;;8.43;4.87;;;;;;;13.97;66.83;99656.18;1616265;88;21076;-81
2022/06/17 00:33:46;;;;;;;7.90;4.15;;;;;;;13.93;67.16;99652.80;1616163;88;21152;-81
2022/06/17 00:36:16;;;;;;;11.18;4.65;;;;;;;13.92;67.63;99652.89;1616013;88;21576;-82
2022/06/17 00:38:43;;;;;;;8.75;4.22;;;;;;;13.92;67.95;99651.57;1627480;87;21175;-82
2022/06/17 00:41:19;;;;;;;5.62;4.00;;;;;;;13.90;68.11;99649.44;1581965;89;21146;-82
2022/06/17 00:43:45;;;;;;;8.80;4.62;;;;;;;13.86;68.22;99638.14;1632557;87;21696;-82
2022/06/17 00:46:26;;;;;;;7.00;4.50;;;;;;;13.85;68.22;99640.86;1632301;87;22062;-82
2022/06/17 00:49:06;;;;;;;10.40;4.83;;;;;;;13.84;68.25;99638.69;1659978;86;21026;-82
2022/06/17 00:51:44;;;;;;;10.88;5.95;;;;;;;13.84;68.37;99644.45;1658147;86;21106;-83
2022/06/17 00:54:30;;;;;;;19.37;6.97;;;;;;;13.85;68.51;99639.53;1660012;86;21027;-82
2022/06/17 00:56:57;;;;;;;13.60;6.72;;;;;;;13.87;68.38;99638.99;1660265;85;21122;-82
2022/06/17 00:59:25;;;;;;;9.90;6.00;;;;;;;13.86;68.50;99639.47;1632871;87;21154;-82
2022/06/17 01:02:02;;;;;;;12.43;6.72;;;;;;;13.86;68.44;99639.94;1660255;86;21016;-81
2022/06/17 01:04:42;;;;;;;12.70;6.75;;;;;;;13.86;68.55;99630.69;1659829;86;21538;-81
2022/06/17 01:07:25;;;;;;;14.15;6.28;;;;;;;13.87;68.52;99631.06;1632915;87;22349;-82
2022/06/17 01:09:58;;;;;;;13.30;6.62;;;;;;;13.87;68.38;99633.70;1659751;86;21099;-82
2022/06/17 01:12:34;;;;;;;17.90;7.08;;;;;;;13.84;68.25;99629.43;1603486;89;21511;-82
2022/06/17 01:15:01;;;;;;;18.02;9.15;;;;;;;13.81;68.36;99634.01;1601508;89;26403;-82
2022/06/17 01:17:28;;;;;;;13.18;8.23;;;;;;;13.80;68.66;99629.63;1608677;87;21118;-81
2022/06/17 01:19:57;;;;;;;14.13;8.10;;;;;;;13.77;68.85;99627.13;1605087;89;21080;-82
2022/06/17 01:22:35;;;;;;;14.25;7.65;;;;;;;13.74;68.83;99626.34;1632548;87;21090;-81
2022/06/17 01:25:07;;;;;;;14.63;7.30;;;;;;;13.73;68.61;99623.33;1659216;86;21885;-83
2022/06/17 01:27:39;;;;;;;13.80;7.42;;;;;;;13.74;68.63;99621.06;1604969;89;21049;-82
2022/06/17 01:30:08;;;;;;;12.60;7.15;;;;;;;13.73;68.50;99625.09;1632726;87;21106;-83
2022/06/17 01:32:40;;;;;;;14.35;7.15;;;;;;;13.69;68.48;99612.48;1632718;87;21128;-81
2022/06/17 01:35:08;;;;;;;14.28;6.72;;;;;;;13.68;68.63;99616.04;1632425;87;21091;-79
2022/06/17 01:37:35;;;;;;;17.20;7.00;;;;;;;13.67;68.79;99619.63;1605469;88;21115;-81
2022/06/17 01:40:03;;;;;;;15.10;7.17;;;;;;;13.64;68.84;99616.27;1639445;87;21095;-82
2022/06/17 01:42:30;;;;;;;16.07;7.62;;;;;;;13.63;68.84;99610.11;1593803;89;21079;-81
2022/06/17 01:44:56;;;;;;;13.90;7.55;;;;;;;13.66;68.76;99614.41;1620720;87;21234;-82
2022/06/17 01:47:25;;;;;;;15.78;7.85;;;;;;;13.66;68.68;99616.58;1611494;89;21163;-81
2022/06/17 01:49:56;;;;;;;19.17;6.65;;;;;;;13.62;68.77;99613.70;1642704;87;21128;-82
2022/06/17 01:53:01;;;;;;;24.32;8.65;;;;;;;13.62;68.77;99609.73;1611412;89;21028;-81
2022/06/17 01:55:33;;;;;;;18.52;7.70;;;;;;;13.62;68.87;99607.56;1638329;87;21090;-81
2022/06/17 01:58:19;;;;;;;17.87;7.80;;;;;;;13.60;68.92;99604.98;1636984;87;21121;-81
2022/06/17 02:00:46;;;;;;;18.85;8.15;;;;;;;13.60;68.84;99606.75;1611668;89;21171;-82
2022/06/17 02:03:28;;;;;;;19.02;7.72;;;;;;;13.57;68.94;99614.38;1639421;87;21625;-82
2022/06/17 02:06:08;;;;;;;17.07;7.35;;;;;;;13.56;69.26;99609.53;1611823;87;21612;-82
2022/06/17 02:08:35;;;;;;;55.20;27.90;;;;;;;13.58;69.23;99609.94;1639547;86;21519;-83
2022/06/17 02:11:05;;;;;;;47.95;26.02;;;;;;;13.55;70.06;99616.23;1611708;89;21111;-82
2022/06/17 02:13:32;;;;;;;54.63;25.48;;;;;;;13.42;70.20;99608.46;1636597;87;21142;-83
2022/06/17 02:16:19;;;;;;;44.10;25.50;;;;;;;13.37;70.56;99604.22;1638052;87;21177;-83
2022/06/17 02:18:55;;;;;;;39.83;22.77;;;;;;;13.42;70.51;99597.89;1566959;90;21582;-81
2022/06/17 02:21:28;;;;;;;34.45;19.37;;;;;;;13.47;70.53;99597.22;1608895;89;21099;-82
2022/06/17 02:23:54;;;;;;;27.32;14.33;;;;;;;13.51;70.64;99595.66;1612167;89;21090;-82
2022/06/17 02:26:21;;;;;;;30.30;12.73;;;;;;;13.57;70.72;99590.58;1611821;89;21069;-82
2022/06/17 02:28:47;;;;;;;28.15;12.13;;;;;;;13.61;70.63;99589.97;1611882;89;22184;-82
2022/06/17 02:31:15;;;;;;;26.15;11.60;;;;;;;13.64;70.66;99588.04;1611674;89;20997;-83
2022/06/17 02:33:43;;;;;;;26.90;9.63;;;;;;;13.69;70.46;99588.69;1611771;89;21030;-82
2022/06/17 02:36:14;;;;;;;34.38;11.05;;;;;;;13.74;70.40;99582.71;1611965;89;21086;-79
2022/06/17 02:38:41;;;;;;;17.50;8.73;;;;;;;13.81;70.46;99583.77;1611865;87;21866;-81
2022/06/17 02:41:16;;;;;;;28.90;9.90;;;;;;;13.88;70.54;99586.50;1614995;88;22210;-82
2022/06/17 02:43:48;;;;;;;23.40;8.80;;;;;;;13.93;70.68;99579.20;1611791;89;21129;-82
2022/06/17 02:46:31;;;;;;;18.42;8.93;;;;;;;14.01;70.47;99582.34;1611967;89;21596;-83
2022/06/17 02:49:01;;;;;;;20.72;7.62;;;;;;;14.06;70.81;99573.72;1611704;89;21588;-82
2022/06/17 02:51:33;;;;;;;18.95;7.85;;;;;;;14.13;70.62;99572.48;1611977;89;21547;-82
2022/06/17 02:54:02;;;;;;;16.45;7.40;;;;;;;14.19;70.53;99575.77;1611872;89;21140;-82
2022/06/17 02:56:31;;;;;;;20.65;8.23;;;;;;;14.24;70.16;99574.63;1594206;89;21133;-83
2022/06/17 02:59:25;;;;;;;20.10;8.15;;;;;;;14.31;70.41;99580.48;1612028;89;21058;-82
2022/06/17 03:01:56;;;;;;;17.95;7.85;;;;;;;14.36;70.89;99575.81;1611992;89;21149;-82
2022/06/17 03:04:31;;;;;;;15.83;7.62;;;;;;;14.42;70.72;99568.88;1625377;86;21141;-83
2022/06/17 03:06:59;;;;;;;27.73;8.45;;;;;;;14.48;70.54;99567.25;1666770;86;21079;-84
2022/06/17 03:09:31;;;;;;;19.92;7.60;;;;;;;14.55;70.41;99565.16;1666518;86;21085;-82
2022/06/17 03:12:08;;;;;;;17.52;7.83;;;;;;;14.62;70.28;99572.36;1647563;86;21699;-84
2022/06/17 03:14:45;;;;;;;19.65;8.15;;;;;;;14.67;71.01;99567.20;1666413;86;21076;-82
2022/06/17 03:17:14;;;;;;;18.10;7.92;;;;;;;14.75;70.85;99569.95;1660691;85;21691;-78
2022/06/17 03:19:41;;;;;;;23.67;8.53;;;;;;;14.82;71.49;99574.84;1666360;86;21149;-82
2022/06/17 03:22:09;;;;;;;23.38;9.33;;;;;;;14.89;72.38;99577.19;1666289;86;21014;-80
2022/06/17 03:25:18;;;;;;;22.75;8.95;;;;;;;14.93;72.58;99578.73;1666230;86;21058;-82
2022/06/17 03:27:51;;;;;;;27.10;8.83;;;;;;;14.97;72.04;99569.23;1666319;86;21058;-81
2022/06/17 03:30:28;;;;;;;34.05;9.78;;;;;;;15.05;71.20;99574.14;1666904;86;21528;-82
2022/06/17 03:33:13;;;;;;;31.77;10.50;;;;;;;15.09;70.35;99575.68;1648045;86;21123;-82
2022/06/17 03:35:40;;;;;;;29.60;12.45;;;;;;;15.14;69.52;99572.80;1666576;86;21062;-82
2022/06/17 03:38:14;;;;;;;34.83;11.57;;;;;;;15.20;68.83;99568.03;1666463;84;21148;-82
2022/06/17 03:40:44;;;;;;;39.48;10.68;;;;;;;15.23;68.57;99567.88;1661379;86;21638;-82
2022/06/17 03:43:23;;;;;;;26.85;10.80;;;;;;;15.30;68.37;99564.88;1666535;86;21026;-84
2022/06/17 03:46:02;;;;;;;25.35;9.78;;;;;;;15.34;68.28;99563.80;1666515;86;22359;-81
2022/06/17 03:48:46;;;;;;;22.93;8.98;;;;;;;15.39;68.38;99565.24;1666578;86;21042;-83
2022/06/17 03:51:21;;;;;;;16.15;8.70;;;;;;;15.44;68.15;99563.68;1666149;86;21504;-82
2022/06/17 03:53:48;;;;;;;20.27;8.35;;;;;;;15.50;68.08;99569.98;1666594;85;21166;-81
2022/06/17 03:56:25;;;;;;;12.23;8.03;;;;;;;15.55;67.66;99569.72;1666304;86;21070;-82
2022/06/17 03:58:57;;;;;;;17.12;8.08;;;;;;;15.61;67.19;99567.59;1666436;86;21806;-81
2022/06/17 04:01:41;;;;;;;28.05;8.68;;;;;;;15.66;66.58;99569.14;1669452;85;20946;-82
2022/06/17 04:04:17;;;;;;;18.12;7.33;;;;;;;15.72;66.43;99563.52;1647931;86;21644;-84
2022/06/17 04:06:46;;;;;;;20.88;7.05;;;;;;;15.77;65.66;99566.80;1666449;86;21169;-82
2022/06/17 04:09:28;;;;;;;15.85;6.85;;;;;;;15.84;64.46;99567.32;1666759;85;21656;-84
2022/06/17 04:12:02;;;;;;;15.48;6.75;;;;;;;15.89;64.54;99566.11;1666434;86;21530;-82
2022/06/17 04:14:56;;;;;;;16.30;6.33;;;;;;;15.95;63.44;99568.88;1647588;86;21101;-83
2022/06/17 04:17:40;;;;;;;14.73;5.85;;;;;;;16.01;63.05;99565.05;1666398;86;21132;-83
2022/06/17 04:20:40;;;;;;;17.52;6.85;;;;;;;16.08;62.78;99559.77;1665586;86;21336;-80
2022/06/17 04:23:26;;;;;;;13.88;5.90;;;;;;;16.14;61.57;99555.45;1612776;88;21121;-84
2022/06/17 04:26:16;;;;;;;16.82;6.17;;;;;;;16.20;60.40;99556.41;1549232;88;21101;-83
2022/06/17 04:28:58;;;;;;;13.60;6.00;;;;;;;16.26;60.38;99557.88;1612506;88;21101;-83
2022/06/17 04:31:28;;;;;;;15.00;5.20;;;;;;;16.33;60.13;99560.06;1613222;88;21107;-83
2022/06/17 04:34:14;;;;;;;19.32;4.92;;;;;;;16.42;59.07;99560.48;1611419;88;21079;-84
2022/06/17 04:37:02;;;;;;;15.45;4.90;;;;;;;16.47;58.30;99559.74;1612685;88;21555;-82
2022/06/17 04:39:39;;;;;;;11.20;4.37;;;;;;;16.55;58.73;99559.30;1612130;88;21162;-83
2022/06/17 04:42:35;;;;;;;11.63;4.17;;;;;;;16.64;57.94;99559.63;1607912;88;21045;-83
2022/06/17 04:45:03;;;;;;;9.28;4.05;;;;;;;16.72;57.05;99563.98;1594439;88;21130;-84
2022/06/17 04:47:33;;;;;;;12.18;4.70;;;;;;;16.84;56.15;99557.56;1613096;88;21071;-80
2022/06/17 04:50:07;;;;;;;10.40;4.50;;;;;;;16.93;56.20;99555.73;1612251;88;21387;-82
2022/06/17 04:52:42;;;;;;;10.10;4.08;;;;;;;17.04;56.05;99557.73;1613409;88;21147;-83
2022/06/17 04:55:32;;;;;;;8.88;4.75;;;;;;;17.15;54.22;99559.27;1612513;88;21632;-83
2022/06/17 04:58:16;;;;;;;9.50;3.50;;;;;;;17.26;53.72;99551.49;1613101;88;21783;-84
2022/06/17 05:00:51;;;;;;;9.48;2.55;;;;;;;17.37;53.58;99556.13;1612687;88;21711;-82
2022/06/17 05:03:25;;;;;;;;;;;;;;;17.48;53.06;99551.95;1631310;86;21122;-83
2022/06/17 05:05:53;;;;;;;9.88;3.30;;;;;;;17.56;52.79;99560.30;1640624;85;21780;-83
2022/06/17 05:08:28;;;;;;;10.75;3.42;;;;;;;17.63;52.99;99549.19;1611635;89;21696;-85
2022/06/17 05:11:03;;;;;;;13.88;4.47;;;;;;;17.70;52.86;99545.66;1639483;87;21673;-82
2022/06/17 05:13:37;;;;;;;6.72;3.50;;;;;;;17.75;54.01;99542.23;1612815;88;21130;-83
2022/06/17 05:16:05;;;;;;;8.15;3.42;;;;;;;17.85;53.64;99546.95;1636168;87;21046;-82
2022/06/17 05:18:32;;;;;;;9.70;3.70;;;;;;;17.95;53.06;99542.28;1611743;89;21240;-83
2022/06/17 05:21:03;;;;;;;6.75;3.10;;;;;;;18.05;53.15;99539.88;1638456;87;21086;-84
2022/06/17 05:23:29;;;;;;;12.25;3.87;;;;;;;18.16;52.09;99540.05;1611333;89;21099;-84
2022/06/17 05:25:57;;;;;;;6.55;3.35;;;;;;;18.27;52.97;99538.48;1620687;87;21511;-82
2022/06/17 05:28:24;;;;;;;12.75;3.60;;;;;;;18.39;51.75;99534.98;1611694;89;21126;-84
2022/06/17 05:30:55;;;;;;;4.87;2.70;;;;;;;18.51;51.89;99532.86;1639053;87;21461;-83
2022/06/17 05:33:21;;;;;;;11.93;2.75;;;;;;;18.65;51.63;99529.73;1611773;89;21142;-82
2022/06/17 05:35:48;;;;;;;6.72;2.72;;;;;;;18.77;49.70;99531.55;1639375;87;21105;-85
2022/06/17 05:38:16;;;;;;;19.23;2.65;;;;;;;18.90;48.97;99528.45;1636314;87;21004;-81
2022/06/17 05:40:44;;;;;;;5.33;2.60;;;;;;;19.02;48.51;99521.91;1627225;87;21102;-82
2022/06/17 05:43:11;;;;;;;17.25;3.10;;;;;;;19.15;48.33;99529.88;1644729;87;21141;-82
2022/06/17 05:45:38;;;;;;;8.35;3.15;;;;;;;19.26;48.36;99529.50;1641242;87;21110;-84
2022/06/17 05:48:07;;;;;;;5.87;2.50;;;;;;;19.37;47.35;99518.58;1643947;87;21110;-83
2022/06/17 05:50:46;;;;;;;10.15;2.98;;;;;;;19.51;47.85;99526.44;1606048;87;21261;-84
2022/06/17 05:53:31;;;;;;;4.30;2.77;;;;;;;19.63;46.84;99523.36;1641702;87;24936;-83
2022/06/17 05:56:02;;;;;;;18.90;2.62;;;;;;;19.77;46.89;99523.27;1639597;87;22724;-81
2022/06/17 05:58:30;;;;;;;8.85;2.27;;;;;;;19.89;46.92;99524.19;1641406;87;21514;-86
2022/06/17 06:00:58;;;;;;;8.23;2.15;;;;;;;20.01;46.72;99515.27;1641289;87;21118;-85
2022/06/17 06:03:26;;;;;;;15.03;2.20;;;;;;;20.15;46.91;99519.57;1641461;87;21624;-86
2022/06/17 06:05:54;;;;;;;4.47;1.55;;;;;;;20.27;45.22;99520.47;1641659;86;21103;-84
2022/06/17 06:08:25;;;;;;;7.20;1.57;;;;;;;20.37;45.23;99516.63;1641029;87;21139;-84
2022/06/17 06:10:55;;;;;;;6.08;2.30;;;;;;;20.50;44.32;99520.58;1641339;87;21151;-83
2022/06/17 06:13:23;;;;;;;9.78;2.05;;;;;;;20.58;43.91;99520.84;1641499;87;21075;-83
2022/06/17 06:15:55;;;;;;;2.62;1.25;;;;;;;20.67;42.61;99518.83;1618212;87;21561;-86
2022/06/17 06:18:27;;;;;;;3.77;1.57;;;;;;;20.74;42.31;99517.38;1636489;87;21071;-80
2022/06/17 06:20:54;;;;;;;7.40;1.50;;;;;;;20.81;42.24;99520.43;1674455;85;21118;-82
2022/06/17 06:23:21;;;;;;;11.78;1.77;;;;;;;20.88;42.06;99521.69;1644331;87;21035;-83
2022/06/17 06:25:48;;;;;;;5.28;1.57;;;;;;;20.96;43.20;99518.39;1641564;87;21866;-86
2022/06/17 06:28:23;;;;;;;4.95;1.12;;;;;;;21.06;42.32;99519.87;1674358;85;21521;-85
2022/06/17 06:30:59;;;;;;;4.30;1.70;;;;;;;21.17;41.97;99523.90;1706303;83;21040;-84
2022/06/17 06:33:26;;;;;;;1.30;1.20;;;;;;;21.24;41.96;99518.92;1671727;85;21554;-84
2022/06/17 06:35:52;;;;;;;5.85;1.52;;;;;;;21.33;41.83;99523.52;1671515;85;21062;-84
2022/06/17 06:38:20;;;;;;;5.33;1.67;;;;;;;21.36;40.86;99507.73;1655937;85;21028;-83
2022/06/17 06:40:47;;;;;;;2.12;1.12;;;;;;;21.35;40.74;99508.22;1673772;85;21083;-82
2022/06/17 06:43:20;;;;;;;3.10;1.75;;;;;;;21.34;40.58;99509.19;1644134;87;21149;-83
2022/06/17 06:46:08;;;;;;;2.42;1.72;;;;;;;21.34;41.62;99508.69;1644108;87;22161;-83
2022/06/17 06:48:36;;;;;;;4.15;2.10;;;;;;;21.42;42.00;99504.08;1705328;83;21027;-81
2022/06/17 06:51:02;;;;;;;5.00;1.82;;;;;;;21.50;41.09;99498.12;1674534;85;21019;-82
2022/06/17 06:53:29;;;;;;;4.35;2.70;;;;;;;21.56;39.78;99502.15;1674216;85;21640;-85
2022/06/17 06:55:57;;;;;;;4.92;2.25;;;;;;;21.57;40.92;99505.17;1674269;85;20998;-83
2022/06/17 06:58:25;;;;;;;21.00;9.95;;;;;;;21.60;40.18;99503.59;1674074;85;22304;-82
2022/06/17 07:00:56;;;;;;;6.80;2.67;;;;;;;21.61;40.06;99499.95;1674212;85;21616;-83
2022/06/17 07:03:24;;;;;;;5.65;1.80;;;;;;;21.64;41.16;99499.70;1674558;85;21484;-83
2022/06/17 07:05:55;;;;;;;5.67;1.40;;;;;;;21.76;41.46;99496.02;1675246;85;21150;-82
2022/06/17 07:08:26;;;;;;;1.70;1.25;;;;;;;21.86;40.32;99496.13;1644492;87;21120;-82
2022/06/17 07:10:54;;;;;;;2.25;1.40;;;;;;;21.94;39.66;99498.16;1640203;87;21179;-84
2022/06/17 07:13:22;;;;;;;4.62;1.40;;;;;;;22.02;38.01;99499.72;1674200;85;21100;-86
2022/06/17 07:15:53;;;;;;;2.42;0.93;;;;;;;22.08;39.40;99503.23;1674247;85;21591;-83
2022/06/17 07:18:23;;;;;;;4.72;1.37;;;;;;;22.11;38.78;99500.31;1674275;85;21678;-83
2022/06/17 07:20:53;;;;;;;4.85;1.37;;;;;;;22.19;39.47;99502.33;1674485;85;21073;-86
2022/06/17 07:23:29;;;;;;;6.87;1.20;;;;;;;22.29;38.75;99498.44;1674403;85;21809;-86
2022/06/17 07:25:58;;;;;;;3.58;1.27;;;;;;;22.32;38.86;99502.20;1674094;85;21042;-81
2022/06/17 07:28:26;;;;;;;3.50;1.10;;;;;;;22.37;38.85;99497.30;1673623;85;21658;-85
2022/06/17 07:30:55;;;;;;;3.30;0.90;;;;;;;22.49;36.52;99500.27;1674040;85;21025;-81
2022/06/17 07:33:26;;;;;;;7.15;1.30;;;;;;;22.51;36.79;99499.69;1674404;85;21073;-82
2022/06/17 07:35:55;;;;;;;4.33;0.98;;;;;;;22.58;37.53;99503.53;1674185;85;21830;-82
2022/06/17 07:41:14;;;;;;;2.12;1.10;;;;;;;22.61;35.52;99503.28;1688982;84;21049;-85
2022/06/17 07:43:41;;;;;;;1.17;0.80;;;;;;;22.67;35.58;99499.21;1631864;87;21555;-81
2022/06/17 07:46:10;;;;;;;6.37;1.27;;;;;;;22.78;33.77;99502.34;1645440;87;21553;-82
2022/06/17 07:48:38;;;;;;;3.62;0.82;;;;;;;22.84;34.54;99502.28;1645144;87;21170;-81
2022/06/17 07:51:07;;;;;;;3.22;0.80;;;;;;;22.90;33.65;99505.29;1645716;87;21087;-85
2022/06/17 07:53:35;;;;;;;6.42;2.10;;;;;;;22.98;34.49;99497.44;1655278;86;21146;-85
2022/06/17 07:56:03;;;;;;;4.50;0.90;;;;;;;23.15;34.68;99505.89;1655438;86;21044;-85
2022/06/17 07:58:31;;;;;;;3.87;0.93;;;;;;;23.26;34.71;99500.41;1655480;86;21562;-84
2022/06/17 08:00:58;;;;;;;1.80;0.90;;;;;;;23.32;34.13;99513.30;1660401;86;21833;-88
2022/06/17 08:03:24;;;;;;;2.65;0.90;;;;;;;23.30;32.20;99506.34;1660383;86;21622;-83
2022/06/17 08:05:54;;;;;;;2.00;0.90;;;;;;;23.16;32.95;99512.94;1660713;86;21539;-85
2022/06/17 08:08:22;;;;;;;3.70;1.05;;;;;;;23.00;33.19;99507.53;1660597;86;21079;-82
2022/06/17 08:10:53;;;;;;;2.42;1.40;;;;;;;22.93;33.85;99502.34;1660327;86;21181;-82
2022/06/17 08:13:21;;;;;;;6.30;1.07;;;;;;;22.96;34.74;99500.75;1660213;86;21174;-83
2022/06/17 08:15:51;;;;;;;7.15;0.90;;;;;;;23.00;33.79;99495.45;1660166;86;21090;-84
2022/06/17 08:18:18;;;;;;;5.92;0.90;;;;;;;23.08;33.45;99499.33;1660217;86;21509;-80
2022/06/17 08:20:44;;;;;;;5.37;0.90;;;;;;;23.15;33.56;99499.18;1660792;86;21016;-84
2022/06/17 08:23:11;;;;;;;2.17;1.00;;;;;;;23.11;32.36;99503.09;1660356;86;21138;-84
2022/06/17 08:25:38;;;;;;;2.75;1.10;;;;;;;23.00;32.16;99502.16;1660576;86;21177;-82
2022/06/17 08:28:08;;;;;;;4.90;1.20;;;;;;;22.96;32.76;99501.22;1660235;86;21083;-83
2022/06/17 08:30:37;;;;;;;1.95;0.90;;;;;;;22.98;33.55;99500.11;1660435;86;21086;-81
2022/06/17 08:33:06;;;;;;;2.00;0.80;;;;;;;23.06;34.05;99499.46;1660326;85;21064;-83
2022/06/17 08:35:36;;;;;;;2.33;1.10;;;;;;;23.19;34.09;99496.56;1660470;86;21554;-82
2022/06/17 08:38:19;;;;;;;2.20;0.62;;;;;;;23.34;33.66;99486.31;1660383;86;21121;-83
2022/06/17 08:41:02;;;;;;;4.15;1.00;;;;;;;23.52;32.61;99494.59;1627111;87;21436;-82
2022/06/17 08:43:55;;;;;;;1.35;0.90;;;;;;;23.62;32.35;99486.53;1626708;88;21138;-84
2022/06/17 08:47:10;;;;;;;1.40;0.98;;;;;;;23.79;31.35;99487.70;1659148;86;21673;-82
2022/06/17 08:50:21;;;;;;;2.50;0.95;;;;;;;23.96;31.49;99481.69;1659256;86;21071;-82
2022/06/17 08:53:43;;;;;;;4.08;0.82;;;;;;;24.21;31.59;99487.48;1659063;86;21126;-83
2022/06/17 08:56:32;;;;;;;4.12;0.98;;;;;;;24.40;30.06;99491.52;1659067;86;21066;-83
2022/06/17 08:59:35;;;;;;;5.60;0.80;;;;;;;24.45;29.17;99479.84;1659116;86;21574;-82
2022/06/17 09:02:19;;;;;;;5.12;1.10;;;;;;;24.30;30.50;99486.65;1659387;86;21146;-85
2022/06/17 09:05:23;;;;;;;4.00;0.93;;;;;;;24.11;31.18;99487.00;1659347;86;21079;-85
2022/06/17 09:08:24;;;;;;;2.58;0.82;;;;;;;23.99;30.88;99473.35;1658953;86;21253;-86
2022/06/17 09:11:05;;;;;;;3.15;0.88;;;;;;;23.82;30.45;99476.70;1634202;86;21123;-82
2022/06/17 09:13:45;;;;;;;13.60;1.37;;;;;;;23.68;32.40;99481.45;1658780;86;21113;-84
2022/06/17 09:16:47;;;;;;;1.80;1.00;;;;;;;23.81;31.93;99482.55;1659279;86;21066;-85
2022/06/17 09:19:19;;;;;;;4.37;0.90;;;;;;;23.94;31.55;99479.64;1659230;86;21053;-84
2022/06/17 09:21:51;;;;;;;1.87;0.95;;;;;;;23.99;31.55;99472.48;1659387;86;22232;-86
2022/06/17 09:24:27;;;;;;;1.57;0.70;;;;;;;24.09;30.19;99471.52;1658958;86;37447;-84
2022/06/17 09:27:03;;;;;;;1.95;0.90;;;;;;;24.08;30.60;99472.49;1659266;86;21094;-83
2022/06/17 09:29:55;;;;;;;2.45;0.78;;;;;;;24.11;31.30;99474.91;1658901;86;21589;-86
2022/06/17 09:32:27;;;;;;;3.05;0.90;;;;;;;24.20;31.97;99475.05;1659346;86;21019;-87
2022/06/17 09:35:17;;;;;;;1.77;0.90;;;;;;;24.30;30.83;99478.08;1658900;86;21567;-83
2022/06/17 09:38:07;;;;;;;2.80;0.80;;;;;;;24.31;30.17;99481.64;1659094;86;21102;-80
2022/06/17 09:40:48;;;;;;;3.92;0.90;;;;;;;24.29;30.49;99475.53;1660624;85;21695;-81
2022/06/17 09:43:23;;;;;;;2.92;0.88;;;;;;;24.33;31.28;99471.58;1666276;85;21105;-85
2022/06/17 09:46:13;;;;;;;8.88;0.80;;;;;;;24.35;30.81;99462.03;1666577;86;21058;-85
2022/06/17 09:48:51;;;;;;;5.25;0.93;;;;;;;24.38;31.46;99467.13;1666669;86;21527;-86
2022/06/17 09:51:28;;;;;;;1.05;0.80;;;;;;;24.53;32.14;99461.66;1666623;86;21157;-81
2022/06/17 09:54:15;;;;;;;3.83;1.10;;;;;;;24.64;30.40;99467.39;1668220;85;21658;-83
2022/06/17 09:57:09;;;;;;;6.72;2.00;;;;;;;24.67;31.54;99459.03;1666467;86;21007;-81
2022/06/17 09:59:44;;;;;;;2.02;1.30;;;;;;;24.82;30.08;99475.56;1666330;86;21121;-84
2022/06/17 10:02:22;;;;;;;1.50;0.90;;;;;;;24.84;30.06;99464.99;1666446;86;21164;-82
2022/06/17 10:04:52;;;;;;;7.28;0.90;;;;;;;24.92;30.46;99458.05;1666195;85;21514;-81
2022/06/17 10:07:45;;;;;;;3.65;1.00;;;;;;;25.08;31.10;99467.67;1666534;86;21025;-87
2022/06/17 10:10:29;;;;;;;3.20;1.30;;;;;;;25.21;29.50;99456.07;1666825;86;21945;-81
2022/06/17 10:13:16;;;;;;;2.00;0.70;;;;;;;25.34;30.12;99450.89;1666742;86;21038;-81
2022/06/17 10:19:17;;;;;;;3.77;1.00;;;;;;;25.61;30.30;99450.53;1666345;86;21077;-83
2022/06/17 10:21:59;;;;;;;11.40;0.95;;;;;;;25.50;28.52;99451.09;1666489;85;21585;-81
2022/06/17 10:24:58;;;;;;;1.60;0.90;;;;;;;25.20;29.47;99454.88;1666480;86;21161;-81
2022/06/17 10:27:34;;;;;;;0.80;0.70;;;;;;;25.06;29.94;99449.48;1666463;86;21235;-82
2022/06/17 10:30:11;;;;;;;4.42;0.90;;;;;;;25.11;29.04;99447.19;1651687;86;21914;-82
2022/06/17 10:32:44;;;;;;;1.30;0.70;;;;;;;25.07;29.30;99446.31;1666692;86;21141;-80
2022/06/17 10:35:22;;;;;;;3.35;1.00;;;;;;;25.12;29.56;99438.64;1666620;86;21065;-83
2022/06/17 10:37:49;;;;;;;1.92;0.85;;;;;;;25.22;29.56;99437.59;1666686;85;21049;-81
2022/06/17 10:40:18;;;;;;;4.30;1.20;;;;;;;25.23;29.65;99442.46;1661964;86;21131;-80
2022/06/17 10:42:47;;;;;;;3.40;0.70;;;;;;;25.18;29.27;99446.09;1605048;88;21688;-83
2022/06/17 10:45:15;;;;;;;2.10;0.85;;;;;;;25.13;29.50;99435.80;1659197;86;21090;-83
2022/06/17 10:47:59;;;;;;;2.58;0.80;;;;;;;25.17;29.48;99439.88;1659229;86;21098;-82
2022/06/17 10:50:29;;;;;;;2.72;0.93;;;;;;;25.14;29.28;99434.78;1659372;86;22168;-82
2022/06/17 10:53:30;;;;;;;2.52;0.80;;;;;;;25.10;29.83;99433.40;1659310;86;21226;-82
2022/06/17 10:55:59;;;;;;;2.85;0.90;;;;;;;25.08;30.13;99432.67;1659147;86;21133;-82
2022/06/17 10:58:31;;;;;;;0.72;0.70;;;;;;;25.14;31.31;99427.22;1636677;86;21083;-82
2022/06/17 11:01:01;;;;;;;3.52;0.85;;;;;;;25.13;29.23;99430.41;1658936;86;21079;-81
2022/06/17 11:03:38;;;;;;;6.30;1.00;;;;;;;24.99;29.40;99423.66;1659146;86;21071;-81
2022/06/17 11:06:18;;;;;;;4.92;1.60;;;;;;;24.94;29.28;99429.98;1659171;86;21633;-82
2022/06/17 11:09:00;;;;;;;3.52;1.00;;;;;;;24.82;30.05;99433.35;1658919;86;21543;-81
2022/06/17 11:14:21;;;;;;;5.60;1.20;;;;;;;24.50;31.29;99427.48;1658929;86;21177;-83
2022/06/17 11:16:49;;;;;;;2.45;0.80;;;;;;;24.41;31.65;99435.41;1658712;86;21141;-84
2022/06/17 11:19:20;;;;;;;3.10;1.02;;;;;;;24.28;31.01;99431.67;1659234;86;21608;-84
2022/06/17 11:21:51;;;;;;;3.62;1.40;;;;;;;24.19;32.34;99427.64;1658903;86;21130;-84
2022/06/17 11:24:25;;;;;;;3.95;1.65;;;;;;;24.18;32.39;99421.93;1659107;86;21078;-82
2022/06/17 11:27:07;;;;;;;;;;;;;;;24.23;33.20;99426.38;1661755;86;21069;-82
2022/06/17 11:29:38;;;;;;;3.87;1.30;;;;;;;24.32;33.53;99424.67;1642026;86;20212;-84
2022/06/17 11:32:25;;;;;;;6.15;1.50;;;;;;;24.35;33.91;99419.84;1659424;86;21089;-84
2022/06/17 11:34:56;;;;;;;11.48;1.10;;;;;;;24.46;33.90;99426.89;1659589;86;21203;-83
2022/06/17 11:37:33;;;;;;;5.17;1.30;;;;;;;24.55;34.25;99419.85;1658215;86;21490;-82
2022/06/17 11:40:14;;;;;;;6.25;1.50;;;;;;;24.68;34.43;99426.23;1658868;86;21129;-82
2022/06/17 11:42:58;;;;;;;6.92;1.47;;;;;;;24.78;34.24;99418.51;1662328;85;21073;-82
2022/06/17 11:45:33;;;;;;;2.02;1.12;;;;;;;24.84;33.49;99416.55;1666449;86;27578;-82
2022/06/17 11:48:14;;;;;;;6.35;1.40;;;;;;;24.91;33.76;99410.59;1666678;86;22412;-84
2022/06/17 11:50:44;;;;;;;1.40;1.30;;;;;;;24.96;33.30;99413.17;1666225;86;21142;-84
2022/06/17 11:53:19;;;;;;;5.35;1.92;;;;;;;24.99;34.03;99415.58;1667047;85;21589;-82
2022/06/17 11:55:49;;;;;;;6.20;2.80;;;;;;;25.12;34.09;99409.02;1666358;86;21104;-82
2022/06/17 11:58:17;;;;;;;3.87;2.37;;;;;;;25.33;34.45;99415.52;1666664;86;21065;-83
2022/06/17 12:00:48;;;;;;;7.37;2.83;;;;;;;25.58;34.26;99407.21;1666388;86;21312;-84
2022/06/17 12:03:40;;;;;;;6.95;3.17;;;;;;;25.78;32.64;99412.80;1666369;86;21129;-82
2022/06/17 12:06:24;;;;;;;7.85;2.67;;;;;;;25.93;32.88;99411.77;1659979;85;21082;-82
2022/06/17 12:09:22;;;;;;;3.33;2.12;;;;;;;26.05;31.65;99406.17;1666318;85;21092;-82
2022/06/17 12:11:55;;;;;;;6.05;2.40;;;;;;;26.12;32.41;99400.50;1666425;86;21117;-84
2022/06/17 12:14:28;;;;;;;5.30;2.52;;;;;;;26.25;31.69;99399.59;1666451;85;21215;-86